Terminal Aerodrome Forecast
Issued by NWS

Home | Current Version | Previous Version | Text Only | Print | Product List | Glossary On
Versions: 1 2 3 4 5 6 7 8 9 10 11 12 13 14 15 16 17 18 19
000
FTUS41 KBOX 261122
TAFFMH
TAF
KFMH 261122Z 2612/2712 24011KT P6SM SKC
     FM261500 24012KT P6SM FEW250
     FM270000 28007KT P6SM BKN080
     FM270200 06006KT 3SM BR BKN050
     FM270400 06006KT 3SM BR VCSH OVC015
     FM270800 07010KT 2SM BR VCSH OVC008=

USA.gov is the U.S. government's official web portal to all federal, state and local government web resources and services.